Terminal Aerodrome Forecast
Issued by NWS

Home | Current Version | Previous Version | Text Only | Print | Product List | Glossary On
Versions: 1 2 3 4 5 6 7 8 9 10 11 12 13 14 15 16 17 18 19 20 21 22 23 24
000
FTUS43 KIND 152300
TAFBMG
TAF
KBMG 152323Z 1600/1624 21007KT P6SM SCT025 OVC040
      TEMPO 1600/1604 5SM -SHRA OVC025
     FM160400 34007KT 5SM BR BKN006 OVC015
     FM161600 36008KT P6SM OVC015
     FM162000 36008KT P6SM SCT015 BKN040
      AMD LTD TO CLD VIS AND WIND 1601/1613=

USA.gov is the U.S. government's official web portal to all federal, state and local government web resources and services.